sensor_id;sensor_type;location;lat;lon;timestamp;P1;durP1;ratioP1;P2;durP2;ratioP2
13733;SDS011;43298;52.560;13.508;2022-08-21T00:02:25;9.27;;;8.85;;
13733;SDS011;43298;52.560;13.508;2022-08-21T00:04:54;8.63;;;8.23;;
13733;SDS011;43298;52.560;13.508;2022-08-21T00:07:20;9.85;;;9.35;;
13733;SDS011;43298;52.560;13.508;2022-08-21T00:09:46;8.52;;;8.13;;
13733;SDS011;43298;52.560;13.508;2022-08-21T00:12:12;9.63;;;9.20;;
13733;SDS011;43298;52.560;13.508;2022-08-21T00:14:39;9.10;;;8.70;;
13733;SDS011;43298;52.560;13.508;2022-08-21T00:17:05;10.27;;;9.68;;
13733;SDS011;43298;52.560;13.508;2022-08-21T00:19:31;9.30;;;8.80;;
13733;SDS011;43298;52.560;13.508;2022-08-21T00:21:57;8.88;;;8.35;;
13733;SDS011;43298;52.560;13.508;2022-08-21T00:24:24;9.13;;;8.57;;
13733;SDS011;43298;52.560;13.508;2022-08-21T00:26:51;8.27;;;7.93;;
13733;SDS011;43298;52.560;13.508;2022-08-21T00:29:17;8.60;;;8.10;;
13733;SDS011;43298;52.560;13.508;2022-08-21T00:31:44;8.35;;;7.90;;
13733;SDS011;43298;52.560;13.508;2022-08-21T00:34:12;8.10;;;7.70;;
13733;SDS011;43298;52.560;13.508;2022-08-21T00:36:38;7.43;;;7.05;;
13733;SDS011;43298;52.560;13.508;2022-08-21T00:39:05;8.23;;;7.82;;
13733;SDS011;43298;52.560;13.508;2022-08-21T00:41:34;8.13;;;7.72;;
13733;SDS011;43298;52.560;13.508;2022-08-21T00:44:02;9.20;;;8.80;;
13733;SDS011;43298;52.560;13.508;2022-08-21T00:46:29;8.32;;;7.93;;
13733;SDS011;43298;52.560;13.508;2022-08-21T00:48:55;8.75;;;8.35;;
13733;SDS011;43298;52.560;13.508;2022-08-21T00:51:23;8.55;;;8.15;;
13733;SDS011;43298;52.560;13.508;2022-08-21T00:54:11;8.18;;;7.78;;
13733;SDS011;43298;52.560;13.508;2022-08-21T00:56:39;7.93;;;7.53;;
13733;SDS011;43298;52.560;13.508;2022-08-21T00:59:05;9.10;;;8.45;;
13733;SDS011;43298;52.560;13.508;2022-08-21T01:01:32;8.07;;;7.68;;
13733;SDS011;43298;52.560;13.508;2022-08-21T01:03:59;7.60;;;7.30;;
13733;SDS011;43298;52.560;13.508;2022-08-21T01:06:25;8.27;;;7.68;;
13733;SDS011;43298;52.560;13.508;2022-08-21T01:08:50;8.63;;;8.23;;
13733;SDS011;43298;52.560;13.508;2022-08-21T01:11:16;9.45;;;8.95;;
13733;SDS011;43298;52.560;13.508;2022-08-21T01:13:43;12.82;;;8.73;;
13733;SDS011;43298;52.560;13.508;2022-08-21T01:16:12;9.45;;;8.98;;
13733;SDS011;43298;52.560;13.508;2022-08-21T01:18:43;8.90;;;8.30;;
13733;SDS011;43298;52.560;13.508;2022-08-21T01:21:12;7.78;;;7.38;;
13733;SDS011;43298;52.560;13.508;2022-08-21T01:23:42;9.45;;;8.95;;
13733;SDS011;43298;52.560;13.508;2022-08-21T01:26:12;8.82;;;8.43;;
13733;SDS011;43298;52.560;13.508;2022-08-21T01:28:46;8.65;;;8.15;;
13733;SDS011;43298;52.560;13.508;2022-08-21T01:31:24;8.82;;;8.43;;
13733;SDS011;43298;52.560;13.508;2022-08-21T01:33:52;9.60;;;9.10;;
13733;SDS011;43298;52.560;13.508;2022-08-21T01:36:20;9.05;;;8.65;;
13733;SDS011;43298;52.560;13.508;2022-08-21T01:38:47;8.40;;;8.00;;
13733;SDS011;43298;52.560;13.508;2022-08-21T01:41:13;9.80;;;9.30;;
13733;SDS011;43298;52.560;13.508;2022-08-21T01:43:41;9.90;;;9.48;;
13733;SDS011;43298;52.560;13.508;2022-08-21T01:46:09;11.40;;;9.13;;
13733;SDS011;43298;52.560;13.508;2022-08-21T01:48:36;9.90;;;9.40;;
13733;SDS011;43298;52.560;13.508;2022-08-21T01:51:03;9.02;;;8.63;;
13733;SDS011;43298;52.560;13.508;2022-08-21T01:53:30;9.75;;;9.25;;
13733;SDS011;43298;52.560;13.508;2022-08-21T01:55:59;9.15;;;8.65;;
13733;SDS011;43298;52.560;13.508;2022-08-21T01:58:25;9.20;;;8.77;;
13733;SDS011;43298;52.560;13.508;2022-08-21T02:00:50;8.57;;;8.18;;
13733;SDS011;43298;52.560;13.508;2022-08-21T02:03:16;8.18;;;7.68;;
13733;SDS011;43298;52.560;13.508;2022-08-21T02:05:42;9.88;;;9.18;;
13733;SDS011;43298;52.560;13.508;2022-08-21T02:08:08;9.10;;;8.68;;
13733;SDS011;43298;52.560;13.508;2022-08-21T02:10:33;7.53;;;7.13;;
13733;SDS011;43298;52.560;13.508;2022-08-21T02:13:00;7.47;;;7.15;;
13733;SDS011;43298;52.560;13.508;2022-08-21T02:15:26;8.73;;;8.05;;
13733;SDS011;43298;52.560;13.508;2022-08-21T02:17:56;7.95;;;7.55;;
13733;SDS011;43298;52.560;13.508;2022-08-21T02:20:26;8.50;;;8.10;;
13733;SDS011;43298;52.560;13.508;2022-08-21T02:22:56;7.93;;;7.53;;
13733;SDS011;43298;52.560;13.508;2022-08-21T02:25:23;7.20;;;6.90;;
13733;SDS011;43298;52.560;13.508;2022-08-21T02:27:50;8.55;;;8.07;;
13733;SDS011;43298;52.560;13.508;2022-08-21T02:30:18;9.20;;;8.70;;
13733;SDS011;43298;52.560;13.508;2022-08-21T02:32:48;7.93;;;7.43;;
13733;SDS011;43298;52.560;13.508;2022-08-21T02:35:14;9.10;;;8.50;;
13733;SDS011;43298;52.560;13.508;2022-08-21T02:37:48;8.38;;;7.78;;
13733;SDS011;43298;52.560;13.508;2022-08-21T02:40:22;9.10;;;8.60;;
13733;SDS011;43298;52.560;13.508;2022-08-21T02:42:52;8.60;;;8.20;;
13733;SDS011;43298;52.560;13.508;2022-08-21T02:45:19;8.35;;;7.95;;
13733;SDS011;43298;52.560;13.508;2022-08-21T02:47:52;9.05;;;8.60;;
13733;SDS011;43298;52.560;13.508;2022-08-21T02:50:26;9.30;;;8.90;;
13733;SDS011;43298;52.560;13.508;2022-08-21T02:52:58;10.32;;;9.73;;
13733;SDS011;43298;52.560;13.508;2022-08-21T02:55:25;8.68;;;8.27;;
13733;SDS011;43298;52.560;13.508;2022-08-21T02:57:54;9.48;;;8.95;;
13733;SDS011;43298;52.560;13.508;2022-08-21T03:00:22;9.20;;;8.80;;
13733;SDS011;43298;52.560;13.508;2022-08-21T03:02:52;9.80;;;9.20;;
13733;SDS011;43298;52.560;13.508;2022-08-21T03:05:20;9.52;;;9.02;;
13733;SDS011;43298;52.560;13.508;2022-08-21T03:07:48;8.35;;;7.85;;
13733;SDS011;43298;52.560;13.508;2022-08-21T03:10:15;9.40;;;8.90;;
13733;SDS011;43298;52.560;13.508;2022-08-21T03:12:41;8.65;;;8.15;;
13733;SDS011;43298;52.560;13.508;2022-08-21T03:15:09;8.85;;;8.38;;
13733;SDS011;43298;52.560;13.508;2022-08-21T03:17:40;9.68;;;9.25;;
13733;SDS011;43298;52.560;13.508;2022-08-21T03:20:07;8.82;;;8.40;;
13733;SDS011;43298;52.560;13.508;2022-08-21T03:22:34;8.23;;;7.85;;
13733;SDS011;43298;52.560;13.508;2022-08-21T03:25:00;9.07;;;8.57;;
13733;SDS011;43298;52.560;13.508;2022-08-21T03:27:27;8.45;;;8.05;;
13733;SDS011;43298;52.560;13.508;2022-08-21T03:29:54;9.52;;;9.02;;
13733;SDS011;43298;52.560;13.508;2022-08-21T03:32:20;8.65;;;8.25;;
13733;SDS011;43298;52.560;13.508;2022-08-21T03:34:46;8.90;;;8.50;;
13733;SDS011;43298;52.560;13.508;2022-08-21T03:37:13;7.97;;;7.57;;
13733;SDS011;43298;52.560;13.508;2022-08-21T03:39:40;8.65;;;8.23;;
13733;SDS011;43298;52.560;13.508;2022-08-21T03:42:07;9.75;;;9.00;;
13733;SDS011;43298;52.560;13.508;2022-08-21T03:44:33;8.50;;;8.07;;
13733;SDS011;43298;52.560;13.508;2022-08-21T03:46:59;8.50;;;8.02;;
13733;SDS011;43298;52.560;13.508;2022-08-21T03:49:26;7.82;;;7.43;;
13733;SDS011;43298;52.560;13.508;2022-08-21T03:51:52;8.43;;;8.02;;
13733;SDS011;43298;52.560;13.508;2022-08-21T03:54:18;7.97;;;7.57;;
13733;SDS011;43298;52.560;13.508;2022-08-21T03:56:44;8.25;;;7.85;;
13733;SDS011;43298;52.560;13.508;2022-08-21T03:59:10;8.88;;;8.45;;
13733;SDS011;43298;52.560;13.508;2022-08-21T04:01:36;8.32;;;7.93;;
13733;SDS011;43298;52.560;13.508;2022-08-21T04:04:03;8.90;;;8.40;;
13733;SDS011;43298;52.560;13.508;2022-08-21T04:06:29;7.57;;;7.18;;
13733;SDS011;43298;52.560;13.508;2022-08-21T04:08:56;8.63;;;8.23;;
13733;SDS011;43298;52.560;13.508;2022-08-21T04:11:21;8.68;;;8.27;;
13733;SDS011;43298;52.560;13.508;2022-08-21T04:13:47;8.60;;;8.10;;
13733;SDS011;43298;52.560;13.508;2022-08-21T04:16:13;8.88;;;8.48;;
13733;SDS011;43298;52.560;13.508;2022-08-21T04:18:39;8.32;;;7.93;;
13733;SDS011;43298;52.560;13.508;2022-08-21T04:21:07;8.93;;;8.20;;
13733;SDS011;43298;52.560;13.508;2022-08-21T04:23:35;8.68;;;8.27;;
13733;SDS011;43298;52.560;13.508;2022-08-21T04:26:02;8.68;;;8.27;;
13733;SDS011;43298;52.560;13.508;2022-08-21T04:28:28;8.82;;;8.43;;
13733;SDS011;43298;52.560;13.508;2022-08-21T04:30:54;7.47;;;7.18;;
13733;SDS011;43298;52.560;13.508;2022-08-21T04:33:20;8.18;;;7.78;;
13733;SDS011;43298;52.560;13.508;2022-08-21T04:35:47;8.10;;;7.70;;
13733;SDS011;43298;52.560;13.508;2022-08-21T04:38:15;8.23;;;7.72;;
13733;SDS011;43298;52.560;13.508;2022-08-21T04:40:41;7.03;;;6.72;;
13733;SDS011;43298;52.560;13.508;2022-08-21T04:43:08;7.95;;;7.53;;
13733;SDS011;43298;52.560;13.508;2022-08-21T04:45:36;7.85;;;7.45;;
13733;SDS011;43298;52.560;13.508;2022-08-21T04:48:08;14.77;;;14.10;;
13733;SDS011;43298;52.560;13.508;2022-08-21T04:53:43;7.47;;;7.18;;
13733;SDS011;43298;52.560;13.508;2022-08-21T04:56:35;7.05;;;6.60;;
13733;SDS011;43298;52.560;13.508;2022-08-21T04:59:33;7.90;;;7.40;;
13733;SDS011;43298;52.560;13.508;2022-08-21T05:02:06;6.65;;;6.35;;
13733;SDS011;43298;52.560;13.508;2022-08-21T05:04:34;8.32;;;7.82;;
13733;SDS011;43298;52.560;13.508;2022-08-21T05:07:09;6.88;;;6.53;;
13733;SDS011;43298;52.560;13.508;2022-08-21T05:09:40;7.40;;;7.10;;
13733;SDS011;43298;52.560;13.508;2022-08-21T05:12:06;7.50;;;7.10;;
13733;SDS011;43298;52.560;13.508;2022-08-21T05:14:32;8.43;;;8.02;;
13733;SDS011;43298;52.560;13.508;2022-08-21T05:16:58;6.93;;;6.63;;
13733;SDS011;43298;52.560;13.508;2022-08-21T05:19:24;6.50;;;6.20;;
13733;SDS011;43298;52.560;13.508;2022-08-21T05:21:51;8.23;;;7.82;;
13733;SDS011;43298;52.560;13.508;2022-08-21T05:24:17;7.35;;;6.93;;
13733;SDS011;43298;52.560;13.508;2022-08-21T05:26:43;8.40;;;7.82;;
13733;SDS011;43298;52.560;13.508;2022-08-21T05:29:09;7.38;;;7.07;;
13733;SDS011;43298;52.560;13.508;2022-08-21T05:31:36;8.70;;;8.20;;
13733;SDS011;43298;52.560;13.508;2022-08-21T05:34:03;7.55;;;7.25;;
13733;SDS011;43298;52.560;13.508;2022-08-21T05:36:30;7.82;;;7.43;;
13733;SDS011;43298;52.560;13.508;2022-08-21T05:38:57;8.05;;;7.65;;
13733;SDS011;43298;52.560;13.508;2022-08-21T05:41:23;9.52;;;8.73;;
13733;SDS011;43298;52.560;13.508;2022-08-21T05:43:48;8.60;;;8.10;;
13733;SDS011;43298;52.560;13.508;2022-08-21T05:46:14;9.27;;;8.68;;
13733;SDS011;43298;52.560;13.508;2022-08-21T05:48:40;10.05;;;9.43;;
13733;SDS011;43298;52.560;13.508;2022-08-21T05:51:11;7.82;;;7.53;;
13733;SDS011;43298;52.560;13.508;2022-08-21T05:53:40;8.82;;;8.43;;
13733;SDS011;43298;52.560;13.508;2022-08-21T05:56:07;8.98;;;8.57;;
13733;SDS011;43298;52.560;13.508;2022-08-21T05:58:34;8.65;;;8.25;;
13733;SDS011;43298;52.560;13.508;2022-08-21T06:01:01;8.52;;;8.07;;
13733;SDS011;43298;52.560;13.508;2022-08-21T06:03:31;7.47;;;7.18;;
13733;SDS011;43298;52.560;13.508;2022-08-21T06:06:01;8.38;;;7.97;;
13733;SDS011;43298;52.560;13.508;2022-08-21T06:08:27;9.00;;;8.60;;
13733;SDS011;43298;52.560;13.508;2022-08-21T06:10:54;8.15;;;7.78;;
13733;SDS011;43298;52.560;13.508;2022-08-21T06:13:23;9.07;;;8.68;;
13733;SDS011;43298;52.560;13.508;2022-08-21T06:15:50;8.25;;;7.85;;
13733;SDS011;43298;52.560;13.508;2022-08-21T06:18:33;9.18;;;8.65;;
13733;SDS011;43298;52.560;13.508;2022-08-21T06:21:00;9.73;;;9.32;;
13733;SDS011;43298;52.560;13.508;2022-08-21T06:23:27;9.05;;;8.65;;
13733;SDS011;43298;52.560;13.508;2022-08-21T06:25:53;8.95;;;8.55;;
13733;SDS011;43298;52.560;13.508;2022-08-21T06:28:19;9.43;;;9.02;;
13733;SDS011;43298;52.560;13.508;2022-08-21T06:30:45;7.97;;;7.60;;
13733;SDS011;43298;52.560;13.508;2022-08-21T06:33:11;9.38;;;8.98;;
13733;SDS011;43298;52.560;13.508;2022-08-21T06:35:37;9.63;;;9.10;;
13733;SDS011;43298;52.560;13.508;2022-08-21T06:38:02;8.57;;;8.18;;
13733;SDS011;43298;52.560;13.508;2022-08-21T06:40:29;9.20;;;8.70;;
13733;SDS011;43298;52.560;13.508;2022-08-21T06:42:57;10.55;;;10.05;;
13733;SDS011;43298;52.560;13.508;2022-08-21T06:45:29;11.00;;;10.50;;
13733;SDS011;43298;52.560;13.508;2022-08-21T06:47:55;12.43;;;11.82;;
13733;SDS011;43298;52.560;13.508;2022-08-21T06:50:21;12.07;;;11.48;;
13733;SDS011;43298;52.560;13.508;2022-08-21T06:52:46;10.10;;;9.23;;
13733;SDS011;43298;52.560;13.508;2022-08-21T06:55:12;9.63;;;9.23;;
13733;SDS011;43298;52.560;13.508;2022-08-21T06:57:39;10.07;;;9.50;;
13733;SDS011;43298;52.560;13.508;2022-08-21T07:00:05;9.70;;;9.30;;
13733;SDS011;43298;52.560;13.508;2022-08-21T07:02:33;9.98;;;9.57;;
13733;SDS011;43298;52.560;13.508;2022-08-21T07:04:59;11.20;;;10.70;;
13733;SDS011;43298;52.560;13.508;2022-08-21T07:07:25;11.32;;;10.82;;
13733;SDS011;43298;52.560;13.508;2022-08-21T07:09:50;14.05;;;13.45;;
13733;SDS011;43298;52.560;13.508;2022-08-21T07:12:16;11.90;;;11.38;;
13733;SDS011;43298;52.560;13.508;2022-08-21T07:14:42;15.05;;;14.40;;
13733;SDS011;43298;52.560;13.508;2022-08-21T07:17:08;15.57;;;14.88;;
13733;SDS011;43298;52.560;13.508;2022-08-21T07:19:33;14.30;;;13.55;;
13733;SDS011;43298;52.560;13.508;2022-08-21T07:22:00;14.80;;;14.10;;
13733;SDS011;43298;52.560;13.508;2022-08-21T07:24:27;17.23;;;16.42;;
13733;SDS011;43298;52.560;13.508;2022-08-21T07:26:54;15.05;;;14.43;;
13733;SDS011;43298;52.560;13.508;2022-08-21T07:29:20;15.85;;;15.15;;
13733;SDS011;43298;52.560;13.508;2022-08-21T07:31:45;12.32;;;11.10;;
13733;SDS011;43298;52.560;13.508;2022-08-21T07:34:12;13.02;;;12.43;;
13733;SDS011;43298;52.560;13.508;2022-08-21T07:36:38;11.32;;;10.82;;
13733;SDS011;43298;52.560;13.508;2022-08-21T07:39:04;11.25;;;10.60;;
13733;SDS011;43298;52.560;13.508;2022-08-21T07:41:30;10.13;;;9.73;;
13733;SDS011;43298;52.560;13.508;2022-08-21T07:43:57;11.48;;;10.98;;
13733;SDS011;43298;52.560;13.508;2022-08-21T07:46:24;10.68;;;10.18;;
13733;SDS011;43298;52.560;13.508;2022-08-21T07:48:50;11.88;;;11.38;;
13733;SDS011;43298;52.560;13.508;2022-08-21T07:51:17;13.13;;;12.52;;
13733;SDS011;43298;52.560;13.508;2022-08-21T07:53:48;10.73;;;10.30;;
13733;SDS011;43298;52.560;13.508;2022-08-21T07:56:15;9.85;;;9.30;;
13733;SDS011;43298;52.560;13.508;2022-08-21T07:58:41;12.05;;;11.55;;
13733;SDS011;43298;52.560;13.508;2022-08-21T08:01:07;15.70;;;15.00;;
13733;SDS011;43298;52.560;13.508;2022-08-21T08:03:33;13.07;;;12.57;;
13733;SDS011;43298;52.560;13.508;2022-08-21T08:05:59;26.95;;;25.80;;
13733;SDS011;43298;52.560;13.508;2022-08-21T08:08:25;26.65;;;25.55;;
13733;SDS011;43298;52.560;13.508;2022-08-21T08:10:51;11.00;;;10.50;;
13733;SDS011;43298;52.560;13.508;2022-08-21T08:13:21;16.35;;;15.55;;
13733;SDS011;43298;52.560;13.508;2022-08-21T08:15:46;10.93;;;10.43;;
13733;SDS011;43298;52.560;13.508;2022-08-21T08:18:13;13.43;;;12.88;;
13733;SDS011;43298;52.560;13.508;2022-08-21T08:20:39;17.10;;;16.38;;
13733;SDS011;43298;52.560;13.508;2022-08-21T08:23:06;14.68;;;13.98;;
13733;SDS011;43298;52.560;13.508;2022-08-21T08:25:34;13.07;;;12.57;;
13733;SDS011;43298;52.560;13.508;2022-08-21T08:28:00;16.05;;;15.23;;
13733;SDS011;43298;52.560;13.508;2022-08-21T08:30:26;14.65;;;13.95;;
13733;SDS011;43298;52.560;13.508;2022-08-21T08:32:52;12.95;;;12.35;;
13733;SDS011;43298;52.560;13.508;2022-08-21T08:35:17;17.13;;;16.23;;
13733;SDS011;43298;52.560;13.508;2022-08-21T08:37:43;14.35;;;13.65;;
13733;SDS011;43298;52.560;13.508;2022-08-21T08:40:14;15.93;;;15.23;;
13733;SDS011;43298;52.560;13.508;2022-08-21T08:43:00;13.88;;;12.93;;
13733;SDS011;43298;52.560;13.508;2022-08-21T08:45:26;16.63;;;15.93;;
13733;SDS011;43298;52.560;13.508;2022-08-21T08:47:59;13.98;;;13.30;;
13733;SDS011;43298;52.560;13.508;2022-08-21T08:53:24;22.55;;;21.35;;
13733;SDS011;43298;52.560;13.508;2022-08-21T08:56:03;24.05;;;23.05;;
13733;SDS011;43298;52.560;13.508;2022-08-21T08:58:33;20.20;;;19.20;;
13733;SDS011;43298;52.560;13.508;2022-08-21T09:01:05;23.45;;;22.45;;
13733;SDS011;43298;52.560;13.508;2022-08-21T09:03:43;23.27;;;22.27;;
13733;SDS011;43298;52.560;13.508;2022-08-21T09:09:35;25.15;;;24.05;;
13733;SDS011;43298;52.560;13.508;2022-08-21T09:12:46;19.63;;;18.13;;
13733;SDS011;43298;52.560;13.508;2022-08-21T09:15:29;18.85;;;18.08;;
13733;SDS011;43298;52.560;13.508;2022-08-21T09:27:08;14.95;;;14.27;;
13733;SDS011;43298;52.560;13.508;2022-08-21T09:29:41;16.02;;;15.32;;
13733;SDS011;43298;52.560;13.508;2022-08-21T09:32:16;19.85;;;18.95;;
13733;SDS011;43298;52.560;13.508;2022-08-21T09:35:03;21.58;;;20.67;;
13733;SDS011;43298;52.560;13.508;2022-08-21T09:37:34;18.95;;;18.10;;
13733;SDS011;43298;52.560;13.508;2022-08-21T09:40:18;19.95;;;19.08;;
13733;SDS011;43298;52.560;13.508;2022-08-21T09:42:56;19.85;;;18.95;;
13733;SDS011;43298;52.560;13.508;2022-08-21T09:45:32;17.08;;;16.38;;
13733;SDS011;43298;52.560;13.508;2022-08-21T09:51:07;15.57;;;14.80;;
13733;SDS011;43298;52.560;13.508;2022-08-21T09:53:38;17.25;;;16.50;;
13733;SDS011;43298;52.560;13.508;2022-08-21T09:56:18;15.40;;;14.80;;
13733;SDS011;43298;52.560;13.508;2022-08-21T09:59:17;18.90;;;18.00;;
13733;SDS011;43298;52.560;13.508;2022-08-21T10:01:55;19.00;;;18.20;;
13733;SDS011;43298;52.560;13.508;2022-08-21T10:04:27;20.02;;;19.10;;
13733;SDS011;43298;52.560;13.508;2022-08-21T10:07:10;19.50;;;18.70;;
13733;SDS011;43298;52.560;13.508;2022-08-21T10:09:39;14.85;;;14.25;;
13733;SDS011;43298;52.560;13.508;2022-08-21T10:12:16;16.40;;;15.40;;
13733;SDS011;43298;52.560;13.508;2022-08-21T10:17:31;24.38;;;23.35;;
13733;SDS011;43298;52.560;13.508;2022-08-21T10:20:22;26.35;;;25.23;;
13733;SDS011;43298;52.560;13.508;2022-08-21T10:25:55;24.17;;;23.13;;
13733;SDS011;43298;52.560;13.508;2022-08-21T10:37:15;19.48;;;18.67;;
13733;SDS011;43298;52.560;13.508;2022-08-21T10:46:05;19.85;;;18.98;;
13733;SDS011;43298;52.560;13.508;2022-08-21T10:50:00;19.13;;;18.33;;
13733;SDS011;43298;52.560;13.508;2022-08-21T10:55:10;20.77;;;19.88;;
13733;SDS011;43298;52.560;13.508;2022-08-21T10:58:12;20.20;;;19.30;;
13733;SDS011;43298;52.560;13.508;2022-08-21T11:01:13;20.40;;;19.60;;
13733;SDS011;43298;52.560;13.508;2022-08-21T11:03:42;19.40;;;18.60;;
13733;SDS011;43298;52.560;13.508;2022-08-21T11:06:31;19.20;;;18.40;;
13733;SDS011;43298;52.560;13.508;2022-08-21T11:08:58;17.98;;;17.17;;
13733;SDS011;43298;52.560;13.508;2022-08-21T11:11:46;18.38;;;17.58;;
13733;SDS011;43298;52.560;13.508;2022-08-21T11:14:24;18.63;;;17.83;;
13733;SDS011;43298;52.560;13.508;2022-08-21T11:17:09;17.42;;;16.63;;
13733;SDS011;43298;52.560;13.508;2022-08-21T11:19:40;17.92;;;17.13;;
13733;SDS011;43298;52.560;13.508;2022-08-21T11:22:28;17.45;;;16.55;;
13733;SDS011;43298;52.560;13.508;2022-08-21T11:25:26;17.63;;;16.88;;
13733;SDS011;43298;52.560;13.508;2022-08-21T11:36:51;18.67;;;17.83;;
13733;SDS011;43298;52.560;13.508;2022-08-21T11:39:45;19.10;;;18.23;;
13733;SDS011;43298;52.560;13.508;2022-08-21T11:50:30;17.23;;;16.52;;
13733;SDS011;43298;52.560;13.508;2022-08-21T11:53:05;17.52;;;16.73;;
13733;SDS011;43298;52.560;13.508;2022-08-21T11:55:50;18.08;;;17.17;;
13733;SDS011;43298;52.560;13.508;2022-08-21T11:58:48;19.80;;;19.00;;
13733;SDS011;43298;52.560;13.508;2022-08-21T12:01:28;18.30;;;17.52;;
13733;SDS011;43298;52.560;13.508;2022-08-21T12:04:07;17.17;;;16.13;;
13733;SDS011;43298;52.560;13.508;2022-08-21T12:06:51;17.08;;;16.38;;
13733;SDS011;43298;52.560;13.508;2022-08-21T12:11:51;18.35;;;17.30;;
13733;SDS011;43298;52.560;13.508;2022-08-21T12:14:48;20.25;;;19.38;;
13733;SDS011;43298;52.560;13.508;2022-08-21T12:17:34;19.10;;;18.17;;
13733;SDS011;43298;52.560;13.508;2022-08-21T12:25:38;17.10;;;16.33;;
13733;SDS011;43298;52.560;13.508;2022-08-21T12:28:24;17.33;;;16.63;;
13733;SDS011;43298;52.560;13.508;2022-08-21T12:30:51;17.70;;;16.92;;
13733;SDS011;43298;52.560;13.508;2022-08-21T12:33:26;17.52;;;16.83;;
13733;SDS011;43298;52.560;13.508;2022-08-21T12:36:12;17.17;;;16.48;;
13733;SDS011;43298;52.560;13.508;2022-08-21T12:38:50;17.15;;;16.35;;
13733;SDS011;43298;52.560;13.508;2022-08-21T12:45:04;18.13;;;17.33;;
13733;SDS011;43298;52.560;13.508;2022-08-21T12:47:29;17.75;;;17.05;;
13733;SDS011;43298;52.560;13.508;2022-08-21T12:50:24;19.63;;;18.45;;
13733;SDS011;43298;52.560;13.508;2022-08-21T12:55:30;19.50;;;18.70;;
13733;SDS011;43298;52.560;13.508;2022-08-21T12:57:58;19.77;;;18.88;;
13733;SDS011;43298;52.560;13.508;2022-08-21T13:00:25;19.77;;;18.98;;
13733;SDS011;43298;52.560;13.508;2022-08-21T13:02:54;19.58;;;18.77;;
13733;SDS011;43298;52.560;13.508;2022-08-21T13:05:33;20.42;;;19.52;;
13733;SDS011;43298;52.560;13.508;2022-08-21T13:08:04;19.92;;;19.05;;
13733;SDS011;43298;52.560;13.508;2022-08-21T13:10:35;21.63;;;20.52;;
13733;SDS011;43298;52.560;13.508;2022-08-21T13:13:03;20.52;;;19.70;;
13733;SDS011;43298;52.560;13.508;2022-08-21T13:15:33;22.58;;;21.65;;
13733;SDS011;43298;52.560;13.508;2022-08-21T13:18:02;21.73;;;20.83;;
13733;SDS011;43298;52.560;13.508;2022-08-21T13:20:32;20.23;;;19.33;;
13733;SDS011;43298;52.560;13.508;2022-08-21T13:23:01;20.30;;;19.50;;
13733;SDS011;43298;52.560;13.508;2022-08-21T13:25:34;19.48;;;18.67;;
13733;SDS011;43298;52.560;13.508;2022-08-21T13:28:06;19.00;;;18.20;;
13733;SDS011;43298;52.560;13.508;2022-08-21T13:30:39;20.35;;;19.55;;
13733;SDS011;43298;52.560;13.508;2022-08-21T13:33:16;18.17;;;17.42;;
13733;SDS011;43298;52.560;13.508;2022-08-21T13:36:03;21.15;;;20.05;;
13733;SDS011;43298;52.560;13.508;2022-08-21T13:38:54;22.63;;;21.63;;
13733;SDS011;43298;52.560;13.508;2022-08-21T13:41:21;22.08;;;21.02;;
13733;SDS011;43298;52.560;13.508;2022-08-21T13:44:56;19.90;;;19.10;;
13733;SDS011;43298;52.560;13.508;2022-08-21T13:47:05;22.58;;;21.60;;
13733;SDS011;43298;52.560;13.508;2022-08-21T13:49:35;20.42;;;19.55;;
13733;SDS011;43298;52.560;13.508;2022-08-21T13:52:19;25.90;;;24.80;;
13733;SDS011;43298;52.560;13.508;2022-08-21T13:54:56;22.30;;;21.40;;
13733;SDS011;43298;52.560;13.508;2022-08-21T13:57:38;24.48;;;23.48;;
13733;SDS011;43298;52.560;13.508;2022-08-21T14:02:40;24.58;;;23.13;;
13733;SDS011;43298;52.560;13.508;2022-08-21T14:05:28;23.95;;;22.45;;
13733;SDS011;43298;52.560;13.508;2022-08-21T14:08:40;25.23;;;24.10;;
13733;SDS011;43298;52.560;13.508;2022-08-21T14:10:58;23.42;;;22.42;;
13733;SDS011;43298;52.560;13.508;2022-08-21T14:16:11;22.35;;;21.38;;
13733;SDS011;43298;52.560;13.508;2022-08-21T14:18:46;21.95;;;20.90;;
13733;SDS011;43298;52.560;13.508;2022-08-21T14:21:28;21.20;;;20.30;;
13733;SDS011;43298;52.560;13.508;2022-08-21T14:26:56;20.33;;;19.10;;
13733;SDS011;43298;52.560;13.508;2022-08-21T14:29:31;19.80;;;19.00;;
13733;SDS011;43298;52.560;13.508;2022-08-21T14:35:05;21.35;;;20.45;;
13733;SDS011;43298;52.560;13.508;2022-08-21T14:37:32;20.67;;;19.83;;
13733;SDS011;43298;52.560;13.508;2022-08-21T14:39:58;21.45;;;20.33;;
13733;SDS011;43298;52.560;13.508;2022-08-21T14:42:24;19.95;;;19.15;;
13733;SDS011;43298;52.560;13.508;2022-08-21T14:44:50;16.27;;;15.57;;
13733;SDS011;43298;52.560;13.508;2022-08-21T14:47:25;15.70;;;15.00;;
13733;SDS011;43298;52.560;13.508;2022-08-21T14:49:50;14.85;;;14.25;;
13733;SDS011;43298;52.560;13.508;2022-08-21T14:52:19;13.55;;;13.00;;
13733;SDS011;43298;52.560;13.508;2022-08-21T14:54:45;12.98;;;12.48;;
13733;SDS011;43298;52.560;13.508;2022-08-21T14:57:11;14.05;;;13.45;;
13733;SDS011;43298;52.560;13.508;2022-08-21T14:59:37;12.43;;;11.93;;
13733;SDS011;43298;52.560;13.508;2022-08-21T15:02:04;13.00;;;12.48;;
13733;SDS011;43298;52.560;13.508;2022-08-21T15:04:32;13.65;;;13.05;;
13733;SDS011;43298;52.560;13.508;2022-08-21T15:06:58;12.48;;;11.98;;
13733;SDS011;43298;52.560;13.508;2022-08-21T15:09:24;12.95;;;12.45;;
13733;SDS011;43298;52.560;13.508;2022-08-21T15:11:53;11.32;;;10.82;;
13733;SDS011;43298;52.560;13.508;2022-08-21T15:14:23;12.48;;;11.70;;
13733;SDS011;43298;52.560;13.508;2022-08-21T15:16:53;13.85;;;13.15;;
13733;SDS011;43298;52.560;13.508;2022-08-21T15:19:19;14.90;;;13.52;;
13733;SDS011;43298;52.560;13.508;2022-08-21T15:21:46;12.88;;;12.38;;
13733;SDS011;43298;52.560;13.508;2022-08-21T15:24:11;13.45;;;12.68;;
13733;SDS011;43298;52.560;13.508;2022-08-21T15:26:37;15.15;;;14.50;;
13733;SDS011;43298;52.560;13.508;2022-08-21T15:29:04;15.55;;;14.88;;
13733;SDS011;43298;52.560;13.508;2022-08-21T15:31:33;16.85;;;16.15;;
13733;SDS011;43298;52.560;13.508;2022-08-21T15:34:00;17.60;;;16.80;;
13733;SDS011;43298;52.560;13.508;2022-08-21T15:36:26;14.80;;;14.20;;
13733;SDS011;43298;52.560;13.508;2022-08-21T15:38:51;16.55;;;15.85;;
13733;SDS011;43298;52.560;13.508;2022-08-21T15:41:17;16.45;;;15.65;;
13733;SDS011;43298;52.560;13.508;2022-08-21T15:43:50;16.40;;;15.60;;
13733;SDS011;43298;52.560;13.508;2022-08-21T15:46:18;15.32;;;14.73;;
13733;SDS011;43298;52.560;13.508;2022-08-21T15:48:45;14.98;;;14.38;;
13733;SDS011;43298;52.560;13.508;2022-08-21T15:51:12;14.98;;;14.38;;
13733;SDS011;43298;52.560;13.508;2022-08-21T15:53:40;16.15;;;15.45;;
13733;SDS011;43298;52.560;13.508;2022-08-21T15:56:11;15.57;;;14.88;;
13733;SDS011;43298;52.560;13.508;2022-08-21T15:58:48;15.38;;;14.73;;
13733;SDS011;43298;52.560;13.508;2022-08-21T16:01:15;16.40;;;15.70;;
13733;SDS011;43298;52.560;13.508;2022-08-21T16:03:42;15.13;;;14.32;;
13733;SDS011;43298;52.560;13.508;2022-08-21T16:06:13;17.13;;;16.42;;
13733;SDS011;43298;52.560;13.508;2022-08-21T16:08:39;17.45;;;16.42;;
13733;SDS011;43298;52.560;13.508;2022-08-21T16:11:05;16.92;;;16.23;;